Latest Weather Observations for Wynyard

IDT60801

Issued at 8:05 pm EDT Friday 31 October 2014 (issued every 30 minutes, with the page automatically refreshed every 10 minutes)

About weather observations | Map of weather stations | Latest weather observations for TAS | Other Formats
Station Details ID: 091107 Name: WYNYARD AIRPORT Lat: -41.00 Lon: 145.73 Height: 12.0 m
Data from the previous 72 hours. | See also: Recent months at Wynyard
Date/Time
EDT
Temp
°C
App
Temp
°C
Dew
Point
Rel
Hum
%
Delta-T
°C
Wind Press
QNH
hPa
Press
MSL
hPa
Rain
since 9 am
mm
Dir
 
Spd
km/h
Gust
km/h
Spd
kts
Gust
kts
31/08:00pm 13.4 11.1 13.1 98 0.2 ENE 17 22 9 12 999.0 999.0 0.6
31/07:30pm 13.5 10.6 12.9 96 0.3 E 20 28 11 15 999.4 999.4 0.6
31/07:00pm 13.6 11.3 13.0 96 0.3 E 17 24 9 13 1000.0 1000.0 0.6
31/06:30pm 13.6 10.6 12.7 94 0.5 ENE 20 32 11 17 1000.0 1000.0 0.6
31/06:00pm 13.9 11.5 12.8 93 0.6 ENE 17 28 9 15 1000.5 1000.5 0.6
31/05:30pm 14.1 11.7 12.8 92 0.7 ENE 17 26 9 14 1001.0 1001.0 0.6
31/05:00pm 14.3 10.8 12.3 88 1.1 E 22 28 12 15 1001.3 1001.3 0.6
31/04:30pm 15.1 11.9 13.1 88 1.1 E 22 30 12 16 1001.5 1001.5 0.6
31/04:00pm 14.3 12.1 13.2 93 0.6 E 17 24 9 13 1002.6 1002.6 0.6
31/03:48pm 14.0 12.0 12.6 91 0.8 ENE 15 19 8 10 1002.8 1002.8 0.6
31/03:30pm 14.4 12.4 12.6 89 1.0 ENE 15 20 8 11 1003.0 1003.0 0.6
31/03:27pm 14.4 12.7 12.6 89 1.0 ENE 13 19 7 10 1003.2 1003.2 0.6
31/03:00pm 14.8 13.4 12.1 84 1.5 ENE 11 17 6 9 1004.0 1004.0 0.6
31/02:36pm 15.3 14.8 13.7 90 0.9 NE 9 15 5 8 1004.5 1004.5 0.6
31/02:30pm 15.6 14.9 14.3 92 0.7 NE 11 15 6 8 1004.4 1004.4 0.6
31/02:00pm 14.9 13.1 13.3 90 0.9 NNE 15 19 8 10 1004.7 1004.7 0.6
31/01:50pm 15.7 14.4 14.9 95 0.5 NNE 15 19 8 10 1004.9 1004.9 0.6
31/01:35pm 15.1 13.5 14.0 93 0.6 NNE 15 19 8 10 1004.9 1004.9 0.6
31/01:31pm 15.2 13.8 14.4 95 0.5 NNE 15 19 8 10 1004.9 1004.9 0.6
31/01:30pm 14.9 13.1 13.4 91 0.8 NNE 15 19 8 10 1004.9 1004.9 0.6
31/01:00pm 14.8 13.7 14.3 97 0.3 NE 13 17 7 9 1005.2 1005.2 0.6
31/12:30pm 14.3 13.3 13.3 94 0.6 NNE 11 15 6 8 1005.7 1005.7 0.6
31/12:00pm 13.8 12.6 12.7 93 0.6 N 11 15 6 8 1006.4 1006.4 0.6
31/11:30am 13.8 12.3 13.2 96 0.3 N 13 17 7 9 1006.5 1006.5 0.6
31/11:00am 13.4 13.6 13.1 98 0.2 N 4 9 2 5 1007.1 1007.1 0.6
31/10:30am 12.7 12.1 12.2 97 0.3 NW 7 13 4 7 1007.4 1007.4 0.6
31/10:09am 12.6 10.7 11.8 95 0.4 NW 13 19 7 10 1007.8 1007.8 0.2
31/10:00am 12.7 11.3 12.1 96 0.3 NW 11 17 6 9 1007.7 1007.7 0.2
31/09:30am 12.5 12.0 12.2 98 0.2 WNW 6 9 3 5 1007.7 1007.7 0.2
31/09:00am 12.1 12.3 11.8 98 0.2 N 2 7 1 4 1008.0 1008.0 0.6
31/08:30am 11.2 10.2 11.0 99 0.1 SE 7 9 4 5 1007.9 1007.9 0.4
31/08:00am 11.1 11.4 10.9 99 0.1 CALM 0 4 0 2 1008.2 1008.2 0.2
31/07:30am 10.9 10.0 10.7 99 0.1 WSW 6 7 3 4 1008.5 1008.5 0.2
31/07:00am 10.3 9.2 10.1 99 0.1 SSE 6 7 3 4 1008.1 1008.1 0.2
31/06:30am 10.2 10.3 10.0 99 0.1 CALM 0 0 0 0 1008.3 1008.3 0.2
31/06:00am 10.3 9.2 10.1 99 0.1 S 6 7 3 4 1008.4 1008.4 0.2
31/05:30am 10.8 10.3 10.6 99 0.1 WNW 4 7 2 4 1008.4 1008.4 0.2
31/05:00am 10.9 9.1 10.7 99 0.1 W 11 17 6 9 1008.5 1008.5 0.2
31/04:30am 10.1 10.2 10.1 100 0.0 CALM 0 0 0 0 1008.7 1008.7 0.2
31/04:00am 9.7 8.9 9.7 100 0.0 S 4 6 2 3 1008.9 1008.9 0.2
31/03:30am 9.7 8.3 9.6 99 0.0 SW 7 13 4 7 1009.3 1009.3 0.2
31/03:00am 9.6 8.2 9.5 99 0.0 W 7 9 4 5 1009.3 1009.3 0.2
31/02:30am 10.3 8.3 10.1 99 0.1 W 11 15 6 8 1009.6 1009.6 0.2
31/02:00am 10.5 7.4 10.3 99 0.1 W 17 22 9 12 1010.0 1010.0 0.2
31/01:30am 10.8 8.2 10.6 99 0.1 W 15 19 8 10 1010.4 1010.4 0.2
31/01:28am 10.8 8.2 10.6 99 0.1 W 15 19 8 10 1010.4 1010.4 0.2
31/01:23am 10.9 8.3 10.7 99 0.1 W 15 19 8 10 1010.6 1010.6 0.2
31/01:11am 11.1 8.6 10.9 99 0.1 WNW 15 20 8 11 1010.8 1010.8 0.2
31/01:00am 10.8 9.3 10.6 99 0.1 NW 9 15 5 8 1010.9 1011.0 0.2
31/12:52am 9.0 8.4 8.9 99 0.0 WSW 2 7 1 4 1011.0 1011.1 0.2
31/12:30am 9.3 8.0 9.2 99 0.0 SW 6 7 3 4 1011.2 1011.3 0.2
31/12:00am 8.9 7.3 8.8 99 0.0 WSW 7 9 4 5 1011.2 1011.3 0.2
 
Date/Time
EDT
Temp
°C
App
Temp
°C
Dew
Point
Rel
Hum
%
Delta-T
°C
Wind Press
QNH
hPa
Press
MSL
hPa
Rain
since 9 am
mm
Dir
 
Spd
km/h
Gust
km/h
Spd
kts
Gust
kts
30/11:30pm 9.7 7.9 9.4 98 0.1 WSW 9 13 5 7 1011.2 1011.3 0.2
30/11:00pm 11.0 8.6 9.9 93 0.6 W 13 15 7 8 1011.2 1011.3 0.2
30/10:30pm 11.6 9.3 10.3 92 0.7 WNW 13 15 7 8 1011.5 1011.6 0.2
30/10:00pm 12.1 9.1 10.8 92 0.7 NW 17 20 9 11 1011.7 1011.8 0.2
30/09:30pm 11.6 8.9 10.2 91 0.7 WNW 15 19 8 10 1011.7 1011.8 0.2
30/09:00pm 11.8 9.4 10.0 89 0.9 WNW 13 15 7 8 1011.3 1011.4 0.2
30/08:30pm 12.5 10.2 10.4 87 1.1 W 13 19 7 10 1010.9 1011.0 0.2
30/08:00pm 12.6 9.4 10.1 85 1.3 WSW 17 22 9 12 1010.8 1010.8 0.2
30/07:30pm 13.5 9.7 9.9 79 1.9 W 20 28 11 15 1010.7 1010.7 0.2
30/07:00pm 14.0 9.9 10.0 77 2.1 W 22 32 12 17 1010.4 1010.4 0.2
30/06:30pm 14.7 9.4 9.7 72 2.6 WSW 28 35 15 19 1010.2 1010.2 0.2
30/06:00pm 14.8 10.0 10.2 74 2.4 WSW 26 35 14 19 1010.0 1010.0 0.2
30/05:30pm 16.0 9.2 9.4 65 3.4 W 35 48 19 26 1009.9 1009.9 0.2
30/05:00pm 15.8 9.7 9.7 67 3.2 W 32 41 17 22 1009.9 1009.9 0.2
30/04:36pm 16.4 10.6 9.6 64 3.5 W 30 48 16 26 1009.8 1009.8 0.2
30/04:30pm 16.9 12.3 11.2 69 3.1 W 26 37 14 20 1009.8 1009.8 0.2
30/04:18pm 15.5 10.0 11.9 79 2.0 W 32 50 17 27 1010.0 1010.0 0.2
30/04:00pm 15.7 9.0 9.6 67 3.2 W 35 50 19 27 1009.9 1009.9 0.2
30/03:30pm 17.1 11.5 11.4 69 3.1 W 32 43 17 23 1009.8 1009.8 0.2
30/03:08pm 16.3 9.7 9.9 66 3.4 W 35 54 19 29 1009.8 1009.8 0.2
30/03:00pm 15.8 10.1 11.0 73 2.6 W 32 48 17 26 1009.9 1009.9 0.2
30/02:57pm 15.7 10.4 10.0 69 3.0 W 28 48 15 26 1009.9 1009.9 0.2
30/02:30pm 17.1 11.7 10.9 67 3.3 WNW 30 41 16 22 1009.6 1009.6 0.0
30/02:00pm 17.3 10.8 10.2 63 3.8 W 35 44 19 24 1010.1 1010.1 0.0
30/01:42pm 16.1 10.9 10.2 68 3.1 W 28 46 15 25 1009.9 1009.9 0.0
30/01:30pm 16.7 11.3 11.0 69 3.1 W 30 43 16 23 1009.9 1009.9 0.0
30/01:19pm 16.7 11.8 11.2 70 3.0 W 28 46 15 25 1009.9 1009.9 0.0
30/01:00pm 16.6 11.2 10.9 69 3.1 WSW 30 39 16 21 1009.9 1009.9 0.0
30/12:30pm 16.9 12.8 11.4 70 3.0 WNW 24 33 13 18 1009.9 1009.9 0.0
30/12:00pm 16.4 11.6 11.8 74 2.5 WNW 28 37 15 20 1010.3 1010.3 0.0
30/11:30am 16.0 10.3 11.0 72 2.7 W 32 44 17 24 1010.3 1010.3 0.0
30/11:00am 15.9 11.7 12.5 80 1.9 WSW 26 37 14 20 1010.7 1010.7 0.0
30/10:30am 15.3 10.5 11.7 79 1.9 WNW 28 39 15 21 1010.7 1010.7 0.0
30/10:17am 14.9 11.6 13.9 94 0.6 W 24 37 13 20 1010.8 1010.8 0.0
30/10:00am 13.1 8.7 12.8 98 0.2 W 28 37 15 20 1011.1 1011.2 0.0
30/09:56am 13.1 8.3 11.8 92 0.7 W 28 39 15 21 1011.0 1011.1 0.0
30/09:42am 14.9 11.2 11.5 80 1.8 W 22 32 12 17 1010.9 1011.0 0.0
30/09:32am 14.3 11.1 12.0 86 1.2 W 20 24 11 13 1010.9 1011.0 0.0
30/09:30am 14.0 10.9 12.2 89 1.0 W 20 24 11 13 1011.0 1011.1 0.0
30/09:15am 12.6 8.1 11.5 93 0.6 WNW 26 32 14 17 1011.0 1011.1 0.0
30/09:00am 13.3 9.6 11.5 89 1.0 W 22 30 12 16 1011.1 1011.2 0.2
30/08:30am 12.7 8.9 11.1 90 0.8 WNW 22 32 12 17 1011.0 1011.1 0.2
30/08:29am 12.8 9.1 11.4 91 0.7 WNW 22 35 12 19 1011.0 1011.1 0.2
30/08:00am 12.6 9.6 10.8 89 0.9 WNW 17 24 9 13 1010.7 1010.7 0.2
30/07:30am 11.3 8.3 10.8 97 0.3 WNW 17 20 9 11 1010.8 1010.8 0.2
30/07:00am 10.8 7.3 10.2 96 0.3 WNW 19 20 10 11 1010.8 1010.8 0.2
30/06:30am 10.2 7.0 9.9 98 0.2 WNW 17 20 9 11 1010.4 1010.4 0.2
30/06:00am 10.1 7.3 9.9 99 0.1 WNW 15 19 8 10 1010.3 1010.3 0.2
30/05:30am 9.4 7.2 9.3 99 0.0 WNW 11 15 6 8 1010.1 1010.1 0.2
30/05:00am 8.1 5.2 8.0 99 0.0 W 13 15 7 8 1010.1 1010.1 0.2
30/04:30am 9.2 6.9 9.1 99 0.0 WNW 11 15 6 8 1009.9 1009.9 0.2
30/04:00am 10.4 7.5 9.8 96 0.3 WNW 15 19 8 10 1010.3 1010.3 0.2
30/03:30am 9.9 6.5 9.3 96 0.3 W 17 22 9 12 1010.5 1010.5 0.2
30/03:00am 10.6 7.3 9.7 94 0.5 W 17 20 9 11 1010.5 1010.5 0.2
30/02:30am 10.1 6.7 9.2 94 0.4 W 17 20 9 11 1010.5 1010.5 0.2
30/02:00am 10.5 5.4 9.1 91 0.7 WSW 26 37 14 20 1010.7 1010.7 0.2
30/01:41am 10.6 4.8 9.4 92 0.6 W 30 41 16 22 1010.7 1010.7 0.2
30/01:30am 10.5 6.1 10.3 99 0.1 W 24 32 13 17 1010.7 1010.7 0.2
30/01:21am 11.1 6.8 10.6 97 0.3 WNW 24 32 13 17 1010.7 1010.7 0.2
30/01:00am 11.3 7.1 9.6 89 0.9 W 22 30 12 16 1011.1 1011.2 0.2
30/12:30am 11.5 7.8 9.6 88 1.0 W 19 26 10 14 1011.2 1011.3 0.2
30/12:00am 11.4 7.1 9.5 88 1.0 W 22 28 12 15 1011.3 1011.4 0.2
 
Date/Time
EDT
Temp
°C
App
Temp
°C
Dew
Point
Rel
Hum
%
Delta-T
°C
Wind Press
QNH
hPa
Press
MSL
hPa
Rain
since 9 am
mm
Dir
 
Spd
km/h
Gust
km/h
Spd
kts
Gust
kts
29/11:30pm 11.3 7.9 10.5 95 0.4 W 19 26 10 14 1011.5 1011.6 0.2
29/11:00pm 11.8 9.0 11.2 96 0.3 W 17 20 9 11 1011.7 1011.8 0.2
29/10:30pm 11.8 8.3 10.9 94 0.5 W 20 26 11 14 1011.6 1011.7 0.2
29/10:00pm 11.9 9.6 11.6 98 0.2 WNW 15 17 8 9 1011.7 1011.8 0.2
29/09:30pm 11.8 9.8 11.6 99 0.1 W 13 17 7 9 1011.7 1011.8 0.2
29/09:03pm 12.1 9.5 11.9 99 0.1 WNW 17 20 9 11 1011.8 1011.9 0.2
29/09:02pm 12.1 9.5 11.9 99 0.1 WNW 17 20 9 11 1011.8 1011.9 0.2
29/09:00pm 12.0 9.3 11.8 99 0.1 WNW 17 20 9 11 1011.8 1011.9 0.2
29/08:52pm 12.1 9.1 11.9 99 0.1 WNW 19 22 10 12 1011.8 1011.9 0.2
29/08:40pm 12.5 9.8 11.7 95 0.4 W 17 24 9 13 1011.7 1011.8 0.2
29/08:30pm 12.9 9.5 10.6 86 1.2 WNW 19 24 10 13 1011.6 1011.7 0.2
29/08:00pm 12.8 8.5 10.9 88 1.0 W 24 30 13 16 1011.5 1011.6 0.2
29/07:30pm 12.7 9.1 11.8 94 0.5 W 22 30 12 16 1011.5 1011.6 0.2
29/07:00pm 13.3 8.0 11.2 87 1.1 W 30 43 16 23 1011.4 1011.5 0.2
29/06:30pm 13.8 8.6 10.4 80 1.8 W 28 43 15 23 1011.2 1011.3 0.2
29/06:18pm 13.6 7.8 10.8 83 1.5 W 32 41 17 22 1011.4 1011.5 0.2
29/06:05pm 14.1 8.3 12.7 91 0.8 W 35 54 19 29 1011.4 1011.5 0.2
29/06:00pm 13.9 7.6 11.1 83 1.5 W 35 54 19 29 1011.5 1011.6 0.2
29/05:57pm 14.2 8.2 10.0 76 2.2 W 32 54 17 29 1011.4 1011.5 0.2
29/05:30pm 14.8 8.2 10.0 73 2.5 W 35 44 19 24 1011.4 1011.5 0.2
29/05:00pm 15.0 10.7 10.8 76 2.2 W 24 32 13 17 1011.4 1011.5 0.2
29/04:30pm 15.6 8.2 9.7 68 3.1 W 39 50 21 27 1011.6 1011.7 0.2
29/04:17pm 16.4 10.3 10.5 68 3.1 W 33 52 18 28 1011.7 1011.8 0.2
29/04:00pm 15.8 10.6 10.1 69 3.0 WNW 28 43 15 23 1011.7 1011.8 0.2
29/03:30pm 16.0 10.7 9.7 66 3.3 WNW 28 44 15 24 1011.9 1012.0 0.0
29/03:00pm 16.9 10.8 10.3 65 3.5 W 33 44 18 24 1012.0 1012.1 0.0
29/02:30pm 16.1 10.7 9.5 65 3.4 W 28 39 15 21 1012.3 1012.4 0.0
29/02:00pm 15.7 9.5 9.4 66 3.3 W 32 43 17 23 1012.6 1012.7 0.0
29/01:30pm 17.2 11.5 11.0 67 3.3 W 32 43 17 23 1012.6 1012.7 0.0
29/01:11pm 15.8 10.0 9.5 66 3.3 WNW 30 48 16 26 1012.7 1012.8 0.0
29/01:00pm 16.3 11.2 10.6 69 3.0 WNW 28 41 15 22 1012.8 1012.9 0.0
29/12:50pm 15.3 10.9 11.7 79 1.9 NW 26 30 14 16 1012.9 1013.0 0.0
29/12:33pm 13.3 8.4 11.2 87 1.1 W 28 41 15 22 1013.3 1013.4 0.0
29/12:30pm 13.4 8.7 10.8 84 1.4 W 26 35 14 19 1013.2 1013.3 0.0
29/12:00pm 14.4 9.8 9.6 73 2.5 W 24 33 13 18 1013.4 1013.5 0.0
29/11:30am 14.3 9.0 9.7 74 2.4 W 28 41 15 22 1013.7 1013.8 0.0
29/11:00am 14.1 9.2 8.5 69 2.8 W 24 43 13 23 1013.8 1013.9 0.0
29/10:30am 13.4 8.2 8.7 73 2.4 W 26 35 14 19 1014.1 1014.2 0.0
29/10:00am 13.1 8.2 8.4 73 2.3 W 24 33 13 18 1014.0 1014.1 0.0
29/09:30am 12.5 8.4 8.6 77 1.9 W 20 28 11 15 1014.1 1014.2 0.0
29/09:00am 11.6 7.6 8.3 80 1.6 WNW 19 26 10 14 1014.2 1014.3 2.0
29/08:30am 10.7 7.7 7.6 81 1.5 WNW 13 17 7 9 1014.2 1014.3 2.0
29/08:00am 9.7 6.9 6.8 82 1.4 WNW 11 15 6 8 1014.1 1014.2 2.0
29/07:30am 9.2 6.3 6.6 84 1.2 NW 11 13 6 7 1014.0 1014.1 2.0
29/07:00am 8.5 7.1 7.4 93 0.5 NNW 4 6 2 3 1013.9 1014.0 2.0
29/06:30am 7.9 6.7 6.4 90 0.7 NNW 2 6 1 3 1013.6 1013.7 2.0
29/06:00am 7.9 5.8 6.5 91 0.6 WNW 7 9 4 5 1013.4 1013.5 2.0
29/05:30am 7.7 5.7 6.3 91 0.6 NW 6 7 3 4 1013.1 1013.2 2.0
29/05:00am 7.0 4.4 6.3 95 0.3 W 9 13 5 7 1012.6 1012.7 2.0
29/04:30am 6.5 3.3 5.1 91 0.6 W 11 13 6 7 1012.1 1012.2 2.0
29/04:00am 7.7 4.5 5.3 85 1.1 NNW 11 13 6 7 1012.1 1012.2 2.0
29/03:30am 8.3 5.5 5.2 81 1.4 NW 9 11 5 6 1011.9 1012.0 2.0
29/03:00am 7.9 4.3 5.0 82 1.3 W 13 15 7 8 1011.9 1012.0 2.0
29/02:30am 7.6 2.8 4.6 81 1.3 W 19 30 10 16 1011.7 1011.8 2.0
29/02:00am 7.8 2.8 4.7 81 1.4 W 20 30 11 16 1011.5 1011.6 2.0
29/01:30am 7.9 2.9 4.5 79 1.5 W 20 28 11 15 1011.5 1011.6 2.0
29/01:00am 8.0 3.1 4.0 76 1.7 W 19 22 10 12 1011.4 1011.5 2.0
29/12:30am 8.3 2.7 3.4 71 2.1 W 22 33 12 18 1011.1 1011.2 2.0
29/12:00am 8.3 2.3 3.6 72 2.0 W 24 33 13 18 1011.0 1011.1 2.0
 
Date/Time
EDT
Temp
°C
App
Temp
°C
Dew
Point
Rel
Hum
%
Delta-T
°C
Wind Press
QNH
hPa
Press
MSL
hPa
Rain
since 9 am
mm
Dir
 
Spd
km/h
Gust
km/h
Spd
kts
Gust
kts
28/11:30pm 8.4 1.3 3.7 72 2.0 W 30 46 16 25 1010.3 1010.3 2.0
28/11:00pm 8.5 0.5 3.9 73 2.0 WSW 35 54 19 29 1010.0 1010.0 2.0
28/10:57pm 8.5 0.5 3.9 73 2.0 WSW 35 54 19 29 1010.0 1010.0 2.0
28/10:30pm 8.3 0.7 3.8 73 1.9 WSW 33 46 18 25 1010.2 1010.2 2.0
28/10:00pm 8.9 1.4 3.3 68 2.4 W 32 43 17 23 1010.1 1010.1 2.0
28/09:30pm 8.7 1.7 3.9 72 2.1 W 30 44 16 24 1009.8 1009.8 2.0
28/09:00pm 8.6 2.0 4.0 73 2.0 W 28 37 15 20 1009.3 1009.3 2.0
28/08:55pm 8.5 1.1 3.9 73 2.0 W 32 50 17 27 1009.3 1009.3 2.0
28/08:30pm 8.8 0.5 4.0 72 2.1 W 37 50 20 27 1008.8 1008.8 2.0

Other Formats:

Comma delimited format used in spreadsheet applications
http://www.bom.gov.au/fwo/IDT60801/IDT60801.95957.axf

JavaScript Object Notation format (JSON) in row-major order
http://www.bom.gov.au/fwo/IDT60801/IDT60801.95957.json